Campiña-No particular awareness of the weather is required.   -   There are no Weather-warnings

Nearby METAR Reports

 

LEZL - Sevilla, Spain
Distance from station: ENE 8km
Updated: 18/06/2019 11:00
Few Clouds
Few Clouds
 Wind from WSW
Wind: WSW 13 km/h
Temperature: 22°C
Dew Point: 14°C
Humidity: 61%
Barometer: 1017 hPa
Clouds: Few Clouds
Visibility: 10 km
Cloud details: Few Clouds 914 m
2019/06/18 09:00 LEZL 180900Z 24007KT 190V290 9999 FEW030 22/14 Q1017 NOSIG
LEMO - Morón, Spain
Distance from station: SE 43km
Updated: 18/06/2019 11:00
Partly cloudy
Partly cloudy
 Wind from SW
Wind: SW 17 km/h
Temperature: 19°C
Dew Point: 13°C
Humidity: 68%
Barometer: 1017 hPa
Clouds: Partly cloudy
Visibility: 10 km
Cloud details: Partly cloudy 762 m
2019/06/18 09:00 LEMO 180900Z 23009KT 170V280 9999 SCT025 19/13 Q1017 NOSIG
LEJR - Jeréz, Spain
Distance from station: S 71km
Updated: 18/06/2019 11:00
Partly cloudy
Partly cloudy
 Wind from SSW
Wind: SSW 9 km/h
Temperature: 21°C
Dew Point: 12°C
Humidity: 57%
Barometer: 1017 hPa
Clouds: Partly cloudy
Visibility: 10 km
Cloud details: Few Clouds 457 m
Partly cloudy 853 m
2019/06/18 09:00 LEJR 180900Z 20005KT 130V250 9999 FEW015 SCT028 21/12 Q1017
 
LERT - Rota, Spain
Distance from station: SSW 89km
Updated: 18/06/2019 11:00
Mostly cloudy
Mostly cloudy
 Wind from SSW
Wind: SSW 11 km/h
Temperature: 21°C
Dew Point: 13°C
Humidity: 60%
Barometer: 1017 hPa
Clouds: Mostly cloudy
Visibility: 10 km
Cloud details: Mostly cloudy 853 m
2019/06/18 09:00 LERT 180900Z 20006KT 160V260 9999 BKN028 21/13 Q1017 NOSIG
LEMG - Málaga, Spain
Distance from station: ESE 157km
Updated: 18/06/2019 11:00
Clear
Clear
 Wind from E
Wind: E 11 km/h
Temperature: 23°C
Dew Point: 14°C
Humidity: 57%
Barometer: 1016 hPa
Summary: Clear
Visibility: greater than 10 km
2019/06/18 09:00 LEMG 180900Z 10006KT 060V140 CAVOK 23/14 Q1016 NOSIG
LEBA - Córdoba, Spain
Distance from station: ENE 115km
Updated: 18/06/2019 11:00
Few Clouds
Few Clouds
 Wind from W
Wind: W 15 km/h
Temperature: 20°C
Dew Point: 13°C
Humidity: 64%
Barometer: 1017 hPa
Clouds: Few Clouds
Visibility: 10 km
Cloud details: Few Clouds 579 m
2019/06/18 09:00 LEBA 180900Z 26008KT 200V330 9999 FEW019 20/13 Q1017
 
LEGR - Granada, Spain
Distance from station: E 198km
Updated: 18/06/2019 11:00
Clear
Clear
 Wind from varies
Wind: varies 4 km/h
Temperature: 24°C
Dew Point: 5°C
Humidity: 29%
Barometer: 1017 hPa
Summary: Clear
Visibility: greater than 10 km
2019/06/18 09:00 LEGR 180900Z VRB02KT CAVOK 24/05 Q1017
LEAM - Almería, Spain
Distance from station: E 326km
Updated: 18/06/2019 11:00
Few Clouds
Few Clouds
 Wind from SSW
Wind: SSW 11 km/h
Temperature: 22°C
Dew Point: 17°C
Humidity: 73%
Barometer: 1016 hPa
Clouds: Few Clouds
Visibility: 10 km
Cloud details: Few Clouds 305 m
2019/06/18 09:00 LEAM 180900Z 20006KT 170V250 9999 FEW010 22/17 Q1016
LEMD - Madrid/Barajas, Spain
Distance from station: NNE 402km
Updated: 18/06/2019 11:00
Clear
Clear
 Wind from S
Wind: S 17 km/h
Temperature: 26°C
Dew Point: 0°C
Humidity: 18%
Barometer: 1015 hPa
Summary: Clear
Visibility: greater than 10 km
2019/06/18 09:00 LEMD 180900Z 19009KT CAVOK 26/M00 Q1015 NOSIG
 
LEVD - Valladolid, Spain
Distance from station: N 492km
Updated: 18/06/2019 11:00
Clear
Clear
 Wind from SW
Wind: SW 28 km/h
Temperature: 23°C
Dew Point: -1°C
Humidity: 20%
Barometer: 1014 hPa
Summary: Clear
Visibility: greater than 10 km
2019/06/18 09:00 LEVD 180900Z 22015KT 190V250 CAVOK 23/M01 Q1014
LEBL - Barcelona, Spain
Distance from station: NE 816km
Updated: 18/06/2019 11:00
Few Clouds
Few Clouds
 Wind from SW
Wind: SW 22 km/h
Temperature: 24°C
Dew Point: 15°C
Humidity: 57%
Barometer: 1015 hPa
Clouds: Few Clouds
Visibility: 10 km
Cloud details: Few Clouds 1219 m
2019/06/18 09:00 LEBL 180900Z 22012KT 9999 FEW040 24/15 Q1015 NOSIG
LEVC - Valencia, Spain
Distance from station: ENE 535km
Updated: 18/06/2019 11:00
Few Clouds
Few Clouds
 Wind from SE
Wind: SE 9 km/h
Temperature: 25°C
Dew Point: 14°C
Humidity: 51%
Barometer: 1015 hPa
Clouds: Few Clouds
Visibility: 10 km
Cloud details: Few Clouds 914 m
2019/06/18 09:00 LEVC 180900Z 13005KT 050V190 9999 FEW030 25/14 Q1015 NOSIG